Time;durP1;ratioP1;P1;durP2;ratioP2;P2;SDS_P1;SDS_P2;PMS_P1;PMS_P2;Temp;Humidity;BMP_temperature;BMP_pressure;BME280_temperature;BME280_humidity;BME280_pressure;Samples;Min_cycle;Max_cycle;Signal;HPM_P1;HPM_P2
2022/03/30 00:01:03;;;;;;;39.95;26.88;;;;;;;12.02;70.38;98805.25;4902599;29;20195;-92
2022/03/30 00:03:29;;;;;;;40.60;27.42;;;;;;;12.04;69.85;98800.56;4900689;29;20502;-92
2022/03/30 00:05:55;;;;;;;39.92;26.73;;;;;;;12.08;69.80;98796.53;4900891;29;20076;-93
2022/03/30 00:08:20;;;;;;;40.45;27.00;;;;;;;12.08;70.14;98799.19;4899444;29;20032;-93
2022/03/30 00:10:46;;;;;;;41.92;28.90;;;;;;;11.97;69.41;98794.25;4900779;29;20405;-93
2022/03/30 00:13:11;;;;;;;40.28;26.95;;;;;;;11.96;69.83;98789.91;4901187;29;20038;-93
2022/03/30 00:15:37;;;;;;;42.22;29.48;;;;;;;12.00;69.71;98791.22;4900596;29;20122;-93
2022/03/30 00:18:05;;;;;;;41.60;27.55;;;;;;;12.02;69.51;98791.88;4900709;29;20027;-93
2022/03/30 00:20:30;;;;;;;44.72;28.88;;;;;;;11.97;69.75;98786.22;4899395;29;20035;-94
2022/03/30 00:22:55;;;;;;;43.60;26.95;;;;;;;11.95;69.52;98789.06;4898830;29;20073;-92
2022/03/30 00:25:21;;;;;;;38.92;25.45;;;;;;;11.89;69.98;98789.75;4901761;29;20759;-93
2022/03/30 00:27:47;;;;;;;40.55;26.92;;;;;;;11.92;70.34;98786.72;4898583;29;20501;-92
2022/03/30 00:30:15;;;;;;;40.30;28.58;;;;;;;11.96;70.49;98785.38;4902064;29;20126;-93
2022/03/30 00:32:40;;;;;;;42.88;27.98;;;;;;;11.88;70.12;98772.03;4903830;29;20073;-92
2022/03/30 00:35:07;;;;;;;41.58;27.27;;;;;;;11.77;70.17;98775.03;4904986;29;20470;-92
2022/03/30 00:37:33;;;;;;;44.75;28.75;;;;;;;11.72;70.48;98772.03;4903638;29;20099;-93
2022/03/30 00:39:58;;;;;;;41.03;27.40;;;;;;;11.73;71.76;98779.06;4900587;29;20541;-93
2022/03/30 00:42:24;;;;;;;44.17;27.50;;;;;;;11.79;71.23;98775.72;4900704;29;20063;-93
2022/03/30 00:44:51;;;;;;;43.75;27.52;;;;;;;11.81;70.80;98776.38;4897478;29;20512;-93
2022/03/30 00:47:21;;;;;;;41.92;27.60;;;;;;;11.77;70.29;98768.84;4901242;29;20080;-93
2022/03/30 00:49:47;;;;;;;42.33;27.55;;;;;;;11.74;70.30;98766.50;4900501;29;20042;-93
2022/03/30 00:52:13;;;;;;;40.08;26.80;;;;;;;11.63;70.36;98771.25;4900779;29;20028;-92
2022/03/30 00:54:41;;;;;;;40.85;26.92;;;;;;;11.77;70.03;98769.69;4901255;29;20032;-93
2022/03/30 00:57:09;;;;;;;40.25;26.05;;;;;;;11.85;69.88;98766.19;4903664;29;20115;-93
2022/03/30 00:59:35;;;;;;;38.67;26.08;;;;;;;11.86;69.66;98766.00;4901001;29;20545;-93
2022/03/30 01:02:05;;;;;;;40.08;26.38;;;;;;;11.78;69.15;98767.88;4899869;29;20155;-93
2022/03/30 01:04:31;;;;;;;41.58;26.25;;;;;;;11.75;69.27;98757.47;4899594;29;20035;-92
2022/03/30 01:06:57;;;;;;;37.58;25.67;;;;;;;11.80;69.34;98747.09;4899891;29;20397;-93
2022/03/30 01:09:23;;;;;;;37.28;25.80;;;;;;;11.81;68.97;98744.25;4900518;29;20036;-93
2022/03/30 01:11:50;;;;;;;37.03;25.88;;;;;;;11.80;68.39;98739.91;4900815;29;20146;-92
2022/03/30 01:14:16;;;;;;;43.38;26.75;;;;;;;11.77;68.67;98734.03;4903061;29;20120;-93
2022/03/30 01:16:41;;;;;;;39.30;26.63;;;;;;;11.74;68.72;98737.88;4900903;29;20110;-93
2022/03/30 01:19:09;;;;;;;37.30;24.67;;;;;;;11.75;68.86;98728.84;4899700;29;20028;-93
2022/03/30 01:21:39;;;;;;;36.38;25.23;;;;;;;11.67;68.39;98726.22;4898449;29;20039;-93
2022/03/30 01:24:05;;;;;;;35.28;23.95;;;;;;;11.62;68.58;98726.75;4915108;29;20032;-93
2022/03/30 01:26:30;;;;;;;36.17;25.77;;;;;;;11.70;68.72;98725.84;4899392;29;20031;-93
2022/03/30 01:28:56;;;;;;;33.95;23.63;;;;;;;11.71;68.26;98724.03;4898707;29;20397;-93
2022/03/30 01:34:06;;;;;;;39.15;23.75;;;;;;;11.79;67.45;98724.84;4914989;29;20047;-94
2022/03/30 01:36:31;;;;;;;36.78;24.13;;;;;;;11.82;67.96;98716.44;4900620;29;20035;-92
2022/03/30 01:38:57;;;;;;;35.03;24.65;;;;;;;11.75;67.84;98709.25;4902298;29;20461;-92
2022/03/30 01:41:22;;;;;;;32.88;22.92;;;;;;;11.72;67.89;98705.09;4902192;29;20040;-93
2022/03/30 01:43:47;;;;;;;38.38;23.77;;;;;;;11.72;67.64;98712.28;4902462;29;20036;-94
2022/03/30 01:46:13;;;;;;;35.05;23.27;;;;;;;11.72;67.61;98710.44;4902728;29;20066;-94
2022/03/30 01:48:38;;;;;;;33.88;22.83;;;;;;;11.70;67.34;98711.63;4901022;29;20040;-93
2022/03/30 01:51:03;;;;;;;35.78;23.67;;;;;;;11.62;67.38;98708.00;4901740;29;20039;-92
2022/03/30 01:53:29;;;;;;;34.38;22.23;;;;;;;11.61;67.56;98705.50;4904628;29;20038;-92
2022/03/30 01:55:54;;;;;;;33.70;22.38;;;;;;;11.59;66.96;98703.00;4900844;29;20123;-93
2022/03/30 01:58:20;;;;;;;35.38;23.45;;;;;;;11.60;67.19;98695.78;4901916;29;20027;-94
2022/03/30 02:00:45;;;;;;;32.28;21.75;;;;;;;11.61;67.52;98700.13;4900543;29;20059;-93
2022/03/30 02:03:12;;;;;;;37.35;23.60;;;;;;;11.59;67.33;98691.44;4916638;29;20086;-93
2022/03/30 02:05:40;;;;;;;34.45;22.73;;;;;;;11.47;67.27;98696.38;4902510;29;20095;-93
2022/03/30 02:08:05;;;;;;;35.33;22.60;;;;;;;11.43;67.15;98696.91;4902905;29;20370;-93
2022/03/30 02:10:31;;;;;;;34.50;22.83;;;;;;;11.41;67.49;98694.38;4900517;29;20090;-93
2022/03/30 02:12:58;;;;;;;35.25;22.58;;;;;;;11.33;66.70;98694.41;4900531;29;20071;-93
2022/03/30 02:15:24;;;;;;;30.98;21.92;;;;;;;11.39;67.18;98692.91;4902302;29;20035;-92
2022/03/30 02:17:49;;;;;;;34.47;23.08;;;;;;;11.39;67.11;98688.38;4900733;29;20035;-93
2022/03/30 02:20:15;;;;;;;36.08;23.10;;;;;;;11.31;67.07;98685.72;4902289;29;20040;-93
2022/03/30 02:22:41;;;;;;;31.30;21.73;;;;;;;11.28;67.78;98678.88;4899938;29;20122;-93
2022/03/30 02:25:08;;;;;;;34.83;23.42;;;;;;;11.28;67.71;98680.72;4916893;29;20545;-92
2022/03/30 02:27:33;;;;;;;34.33;21.92;;;;;;;11.34;68.04;98677.34;4900455;29;20032;-93
2022/03/30 02:29:59;;;;;;;35.70;22.33;;;;;;;11.31;68.58;98672.31;4900845;29;20464;-93
2022/03/30 02:32:24;;;;;;;35.15;22.92;;;;;;;11.31;68.45;98675.00;4901813;29;20110;-92
2022/03/30 02:34:52;;;;;;;32.10;22.08;;;;;;;11.29;68.35;98671.66;4901049;29;20043;-91
2022/03/30 02:37:17;;;;;;;31.98;21.23;;;;;;;11.27;68.77;98676.38;4906170;29;20896;-92
2022/03/30 02:39:43;;;;;;;37.05;22.42;;;;;;;11.21;68.96;98667.19;4902623;29;20038;-93
2022/03/30 02:42:09;;;;;;;31.80;21.70;;;;;;;11.18;68.60;98672.88;4902561;29;20046;-94
2022/03/30 02:44:35;;;;;;;33.60;21.88;;;;;;;11.24;68.39;98666.84;4900847;29;20118;-93
2022/03/30 02:47:01;;;;;;;31.65;21.95;;;;;;;11.30;68.57;98673.34;4899354;29;20040;-93
2022/03/30 02:49:27;;;;;;;34.33;22.70;;;;;;;11.19;68.15;98663.84;4904861;29;20123;-93
2022/03/30 02:51:52;;;;;;;35.63;22.23;;;;;;;11.15;68.62;98657.19;4918092;29;20142;-92
2022/03/30 02:54:18;;;;;;;33.47;21.23;;;;;;;11.06;68.73;98660.06;4903175;29;20485;-92
2022/03/30 02:56:44;;;;;;;36.17;22.55;;;;;;;11.06;69.42;98660.91;4899931;29;20378;-93
2022/03/30 02:59:09;;;;;;;32.80;21.58;;;;;;;11.01;68.84;98657.91;4900517;29;20099;-93
2022/03/30 03:01:34;;;;;;;32.65;21.17;;;;;;;11.13;68.78;98655.69;4900920;29;20027;-92
2022/03/30 03:04:00;;;;;;;28.45;20.05;;;;;;;11.26;68.96;98650.63;4901317;29;20031;-93
2022/03/30 03:06:25;;;;;;;32.75;20.73;;;;;;;11.10;68.73;98656.88;4902109;29;20293;-93
2022/03/30 03:08:51;;;;;;;34.83;21.90;;;;;;;11.06;68.48;98654.72;4901018;29;20482;-93
2022/03/30 03:11:17;;;;;;;32.35;21.10;;;;;;;11.00;68.33;98659.75;4900723;29;20095;-93
2022/03/30 03:13:42;;;;;;;30.40;20.25;;;;;;;10.99;68.55;98662.59;4902545;29;20036;-93
2022/03/30 03:16:08;;;;;;;32.90;20.60;;;;;;;11.00;68.22;98657.09;4899838;29;20038;-92
2022/03/30 03:18:35;;;;;;;32.55;20.70;;;;;;;11.07;68.68;98651.03;4902634;29;20086;-93
2022/03/30 03:21:00;;;;;;;28.40;20.52;;;;;;;11.07;68.25;98643.84;4899919;29;20039;-93
2022/03/30 03:23:26;;;;;;;34.17;21.15;;;;;;;11.08;67.69;98642.00;4901906;29;20075;-93
2022/03/30 03:25:53;;;;;;;30.70;20.48;;;;;;;11.15;68.14;98642.97;4903964;29;20054;-93
2022/03/30 03:28:18;;;;;;;29.98;19.92;;;;;;;11.11;68.05;98639.81;4903210;29;20062;-93
2022/03/30 03:30:44;;;;;;;31.02;20.75;;;;;;;10.95;67.65;98640.72;4899830;29;20541;-93
2022/03/30 03:33:10;;;;;;;30.20;19.40;;;;;;;10.94;67.92;98641.72;4902685;29;20046;-93
2022/03/30 03:35:35;;;;;;;32.70;20.63;;;;;;;10.99;67.66;98644.72;4901403;29;20035;-93
2022/03/30 03:38:01;;;;;;;29.73;19.85;;;;;;;11.00;67.57;98635.69;4916145;29;20126;-93
2022/03/30 03:40:27;;;;;;;31.13;20.23;;;;;;;11.06;67.92;98631.47;4899115;29;20050;-93
2022/03/30 03:42:53;;;;;;;33.42;20.40;;;;;;;10.96;67.43;98633.53;4900491;29;20405;-93
2022/03/30 03:45:18;;;;;;;34.92;19.95;;;;;;;10.98;67.70;98637.69;4902426;29;20492;-92
2022/03/30 03:47:44;;;;;;;32.70;20.63;;;;;;;11.00;67.32;98634.84;4904030;29;20031;-93
2022/03/30 03:50:10;;;;;;;32.45;19.83;;;;;;;10.99;67.36;98634.00;4905307;29;20062;-93
2022/03/30 03:52:36;;;;;;;29.95;20.45;;;;;;;11.03;66.97;98635.34;4902175;29;20065;-92
2022/03/30 03:55:03;;;;;;;31.42;20.67;;;;;;;10.94;66.39;98635.53;4900290;29;20063;-93
2022/03/30 03:57:29;;;;;;;28.85;18.85;;;;;;;11.06;67.42;98633.31;4900945;29;20681;-93
2022/03/30 03:59:55;;;;;;;29.00;19.65;;;;;;;10.93;67.17;98640.06;4900064;29;20393;-93
2022/03/30 04:02:20;;;;;;;28.38;19.10;;;;;;;10.98;66.77;98637.69;4901550;29;20034;-93
2022/03/30 04:04:46;;;;;;;35.42;20.73;;;;;;;10.98;66.62;98639.53;4905288;29;20035;-93
2022/03/30 04:07:11;;;;;;;29.55;19.20;;;;;;;10.90;66.33;98637.72;4905279;29;20028;-93
2022/03/30 04:09:36;;;;;;;30.08;19.80;;;;;;;10.89;66.48;98633.38;4904046;29;20036;-93
2022/03/30 04:12:03;;;;;;;33.33;20.02;;;;;;;10.81;65.99;98636.06;4907901;29;20752;-92
2022/03/30 04:14:28;;;;;;;30.98;20.80;;;;;;;10.78;66.43;98628.38;4906107;29;20118;-93
2022/03/30 04:16:54;;;;;;;32.83;19.50;;;;;;;10.79;66.71;98635.41;4907107;29;20118;-93
2022/03/30 04:19:19;;;;;;;29.85;20.17;;;;;;;10.89;66.65;98630.72;4907879;29;20035;-93
2022/03/30 04:21:45;;;;;;;33.20;20.35;;;;;;;10.91;66.50;98634.06;4911937;29;20079;-93
2022/03/30 04:24:11;;;;;;;29.75;20.05;;;;;;;10.84;66.09;98627.69;4912394;29;20035;-94
2022/03/30 04:26:37;;;;;;;34.05;19.73;;;;;;;10.83;65.89;98631.38;4904936;29;20086;-93
2022/03/30 04:29:03;;;;;;;33.55;20.48;;;;;;;10.77;65.87;98625.88;4905682;29;20042;-93
2022/03/30 04:31:28;;;;;;;31.88;18.83;;;;;;;10.71;66.07;98628.25;4921060;29;20127;-93
2022/03/30 04:33:54;;;;;;;28.05;19.15;;;;;;;10.62;66.57;98623.09;4905440;29;20066;-93
2022/03/30 04:36:19;;;;;;;31.35;19.35;;;;;;;10.53;66.92;98621.44;4904211;29;20047;-93
2022/03/30 04:38:45;;;;;;;30.88;20.58;;;;;;;10.56;66.63;98611.25;4904550;29;20044;-93
2022/03/30 04:41:11;;;;;;;31.38;20.60;;;;;;;10.54;66.56;98615.09;4906058;29;20032;-93
2022/03/30 04:43:36;;;;;;;28.65;19.30;;;;;;;10.52;66.99;98615.28;4905115;29;20449;-93
2022/03/30 04:46:02;;;;;;;30.40;20.15;;;;;;;10.48;66.36;98615.78;4905394;29;20485;-93
2022/03/30 04:48:28;;;;;;;30.90;18.67;;;;;;;10.43;66.06;98604.78;4904027;29;20043;-93
2022/03/30 04:50:53;;;;;;;31.27;19.67;;;;;;;10.32;66.48;98601.44;4905114;29;20032;-93
2022/03/30 04:53:19;;;;;;;33.75;21.38;;;;;;;10.53;66.54;98594.72;4907628;29;20090;-93
2022/03/30 04:55:45;;;;;;;28.95;19.77;;;;;;;10.61;66.74;98597.38;4903497;29;20118;-93
2022/03/30 04:58:11;;;;;;;30.08;19.48;;;;;;;10.65;66.35;98604.03;4921071;29;20028;-92
2022/03/30 05:00:36;;;;;;;29.83;19.42;;;;;;;10.54;66.08;98609.75;4903892;29;20032;-94
2022/03/30 05:03:03;;;;;;;28.98;19.52;;;;;;;10.47;66.17;98598.06;4904466;29;20040;-93
2022/03/30 05:05:28;;;;;;;29.52;19.92;;;;;;;10.59;66.50;98599.38;4904431;29;20477;-93
2022/03/30 05:07:57;;;;;;;31.60;19.90;;;;;;;10.61;66.17;98602.72;4905326;29;20038;-93
2022/03/30 05:10:22;;;;;;;30.05;20.10;;;;;;;10.56;65.77;98599.72;4905497;29;20035;-93
2022/03/30 05:12:48;;;;;;;30.65;18.67;;;;;;;10.58;66.34;98597.72;4902448;29;20741;-93
2022/03/30 05:15:13;;;;;;;28.48;18.40;;;;;;;10.56;65.89;98589.88;4902957;29;20038;-93
2022/03/30 05:17:44;;;;;;;31.38;19.02;;;;;;;10.53;66.06;98597.41;4905268;29;20126;-93
2022/03/30 05:20:14;;;;;;;31.58;19.35;;;;;;;10.56;65.53;98608.56;4904328;29;20151;-92
2022/03/30 05:22:40;;;;;;;33.03;19.50;;;;;;;10.44;65.65;98601.09;4904126;29;20118;-93
2022/03/30 05:25:07;;;;;;;29.70;19.75;;;;;;;10.53;66.07;98608.09;4906881;29;20028;-93
2022/03/30 05:27:32;;;;;;;32.13;19.67;;;;;;;10.48;65.37;98597.91;4904994;29;20123;-93
2022/03/30 05:29:58;;;;;;;28.63;19.10;;;;;;;10.59;65.72;98597.53;4904301;29;20067;-93
2022/03/30 05:32:23;;;;;;;29.90;19.45;;;;;;;10.44;65.64;98587.72;4908198;29;20027;-93
2022/03/30 05:34:48;;;;;;;30.33;18.90;;;;;;;10.38;65.54;98591.88;4911085;29;20090;-93
2022/03/30 05:37:14;;;;;;;30.05;19.60;;;;;;;10.43;65.95;98591.41;4921127;29;20044;-93
2022/03/30 05:39:41;;;;;;;29.95;18.90;;;;;;;10.49;66.22;98590.72;4896810;29;20047;-93
2022/03/30 05:42:07;;;;;;;31.20;19.50;;;;;;;10.36;65.32;98592.06;4896719;29;20043;-94
2022/03/30 05:44:32;;;;;;;33.50;19.08;;;;;;;10.36;65.99;98600.06;4896984;29;20077;-92
2022/03/30 05:46:58;;;;;;;33.53;19.90;;;;;;;10.26;66.12;98604.78;4892270;29;20114;-93
2022/03/30 05:49:24;;;;;;;28.40;18.42;;;;;;;10.21;66.12;98599.13;4895414;29;20046;-93
2022/03/30 05:51:50;;;;;;;31.55;19.30;;;;;;;10.23;66.31;98606.97;4894587;29;20032;-93
2022/03/30 05:54:15;;;;;;;31.35;18.63;;;;;;;10.16;66.33;98606.78;4895356;29;20130;-93
2022/03/30 05:59:25;;;;;;;31.50;19.15;;;;;;;10.20;66.63;98597.44;4925939;29;20411;-95
2022/03/30 06:01:51;;;;;;;31.35;18.70;;;;;;;10.25;66.40;98615.63;4905945;29;20055;-94
2022/03/30 06:04:16;;;;;;;32.97;18.30;;;;;;;10.23;66.18;98606.97;4912048;29;20082;-94
2022/03/30 06:06:41;;;;;;;29.98;18.35;;;;;;;10.27;66.00;98611.78;4907927;29;20031;-94
2022/03/30 06:09:07;;;;;;;31.42;19.10;;;;;;;10.30;66.06;98616.78;4917969;29;20561;-94
2022/03/30 06:11:33;;;;;;;30.98;19.60;;;;;;;10.24;66.05;98619.31;4909842;29;20028;-93
2022/03/30 06:14:03;;;;;;;30.75;18.58;;;;;;;10.35;66.41;98621.63;4906915;29;20031;-92
2022/03/30 06:16:29;;;;;;;33.42;19.40;;;;;;;10.28;66.07;98616.13;4905370;29;20055;-93
2022/03/30 06:18:55;;;;;;;32.20;19.17;;;;;;;10.35;66.62;98619.78;4905129;29;20056;-92
2022/03/30 06:21:21;;;;;;;28.77;18.58;;;;;;;10.34;66.75;98615.44;4907152;29;20032;-93
2022/03/30 06:23:47;;;;;;;31.45;18.30;;;;;;;10.07;66.58;98613.13;4905290;29;20123;-94
2022/03/30 06:26:12;;;;;;;28.42;18.48;;;;;;;10.07;67.56;98613.13;4893952;29;20066;-94
2022/03/30 06:28:38;;;;;;;29.25;18.75;;;;;;;10.16;67.22;98621.97;4894088;29;20028;-94
2022/03/30 06:31:06;;;;;;;29.35;17.80;;;;;;;10.23;67.58;98614.97;4900694;29;20031;-94
2022/03/30 06:33:31;;;;;;;28.58;18.05;;;;;;;10.27;66.92;98617.13;4912593;29;20461;-94
2022/03/30 06:35:57;;;;;;;30.95;18.40;;;;;;;10.17;66.71;98613.78;4894194;29;20051;-95
2022/03/30 06:38:22;;;;;;;30.38;18.75;;;;;;;10.18;67.10;98620.78;4894524;29;20043;-94
2022/03/30 06:40:49;;;;;;;31.02;19.55;;;;;;;10.16;67.07;98617.44;4889164;29;20024;-93
2022/03/30 06:43:15;;;;;;;31.65;18.42;;;;;;;10.21;67.56;98625.00;4892704;29;20478;-94
2022/03/30 06:45:46;;;;;;;29.48;18.50;;;;;;;10.20;66.94;98624.16;4909125;29;20042;-93
2022/03/30 06:48:11;;;;;;;30.38;17.60;;;;;;;10.18;67.21;98633.31;4905864;29;20043;-93
2022/03/30 06:50:44;;;;;;;28.65;17.90;;;;;;;10.20;67.62;98634.84;4885387;29;20052;-92
2022/03/30 06:53:20;;;;;;;32.20;18.27;;;;;;;10.23;67.37;98629.16;4882158;29;20045;-92
2022/03/30 06:55:52;;;;;;;29.27;17.80;;;;;;;10.17;66.75;98634.31;4883916;29;20554;-92
2022/03/30 06:58:22;;;;;;;30.50;18.25;;;;;;;10.13;66.72;98631.16;4867973;29;20055;-92
2022/03/30 07:00:51;;;;;;;30.48;18.23;;;;;;;10.15;67.03;98631.81;4867397;29;20041;-92
2022/03/30 07:03:25;;;;;;;27.75;17.75;;;;;;;10.21;67.24;98625.81;4867472;29;20068;-92
2022/03/30 07:06:02;;;;;;;31.27;18.95;;;;;;;10.20;67.80;98626.81;4867480;29;20427;-92
2022/03/30 07:11:18;;;;;;;30.67;18.30;;;;;;;10.24;67.89;98630.00;4884993;29;20043;-92
2022/03/30 07:13:47;;;;;;;27.77;18.23;;;;;;;10.22;66.51;98632.84;4867622;29;20471;-92
2022/03/30 07:16:21;;;;;;;28.17;17.17;;;;;;;10.20;67.46;98634.84;4866386;29;20414;-92
2022/03/30 07:18:59;;;;;;;29.70;18.52;;;;;;;10.27;67.01;98629.66;4882417;29;20384;-92
2022/03/30 07:21:39;;;;;;;30.60;18.00;;;;;;;10.18;66.52;98625.28;4898577;29;20151;-92
2022/03/30 07:24:25;;;;;;;31.40;18.80;;;;;;;10.21;66.63;98630.34;4867297;29;20363;-92
2022/03/30 07:26:53;;;;;;;31.10;17.85;;;;;;;10.18;66.52;98628.81;4882235;29;20032;-92
2022/03/30 07:29:24;;;;;;;28.40;18.27;;;;;;;10.15;66.74;98626.47;4882606;29;20376;-91
2022/03/30 07:31:57;;;;;;;34.17;17.90;;;;;;;10.08;65.99;98628.16;4868994;29;20072;-92
2022/03/30 07:34:44;;;;;;;30.83;17.70;;;;;;;10.10;66.16;98621.63;4870122;29;20166;-92
2022/03/30 07:37:20;;;;;;;31.08;18.27;;;;;;;10.17;66.72;98620.97;4883253;29;20036;-92
2022/03/30 07:39:51;;;;;;;33.83;18.30;;;;;;;10.15;66.46;98618.47;4904194;29;20060;-93
2022/03/30 07:42:20;;;;;;;28.95;17.63;;;;;;;10.21;66.75;98630.34;4897983;29;20143;-92
2022/03/30 07:44:56;;;;;;;29.42;18.40;;;;;;;10.28;67.09;98624.16;4919512;29;20051;-92
2022/03/30 07:47:29;;;;;;;28.25;18.55;;;;;;;10.27;66.84;98614.47;4920056;29;20044;-92
2022/03/30 07:50:16;;;;;;;31.13;18.90;;;;;;;10.36;66.65;98621.47;4920032;29;20434;-92
2022/03/30 07:52:58;;;;;;;31.60;18.85;;;;;;;10.27;66.58;98626.97;4904433;29;20032;-92
2022/03/30 07:55:41;;;;;;;32.22;17.88;;;;;;;10.26;66.40;98620.81;4918257;29;20083;-92
2022/03/30 07:58:11;;;;;;;28.98;18.48;;;;;;;10.22;65.63;98626.66;4904584;29;20520;-92
2022/03/30 08:00:40;;;;;;;31.20;18.67;;;;;;;10.25;66.17;98616.47;4904528;29;20040;-92
2022/03/30 08:03:08;;;;;;;29.05;17.80;;;;;;;10.36;66.91;98613.44;4904827;29;20036;-92
2022/03/30 08:05:39;;;;;;;29.30;17.83;;;;;;;10.42;66.36;98614.63;4919025;29;20043;-92
2022/03/30 08:08:07;;;;;;;30.38;17.55;;;;;;;10.52;66.86;98617.94;4919318;29;20040;-92
2022/03/30 08:10:37;;;;;;;29.98;17.73;;;;;;;10.38;65.28;98614.09;4905227;29;20032;-92
2022/03/30 08:13:12;;;;;;;28.48;17.73;;;;;;;10.44;65.74;98622.47;4921296;29;20489;-92
2022/03/30 08:15:45;;;;;;;30.98;18.42;;;;;;;10.55;66.41;98620.28;4920280;29;20118;-92
2022/03/30 08:18:21;;;;;;;32.10;17.10;;;;;;;10.52;65.16;98614.44;4920153;29;20032;-92
2022/03/30 08:23:35;;;;;;;31.55;17.88;;;;;;;10.65;65.18;98620.06;4925249;29;20039;-93
2022/03/30 08:26:00;;;;;;;28.40;18.35;;;;;;;10.53;64.55;98624.97;4904764;29;20577;-93
2022/03/30 08:28:27;;;;;;;31.42;18.00;;;;;;;10.48;64.85;98618.47;4904747;29;20064;-93
2022/03/30 08:30:52;;;;;;;26.67;18.05;;;;;;;10.53;65.47;98624.13;4905107;29;20516;-93
2022/03/30 08:33:23;;;;;;;27.23;17.60;;;;;;;10.65;65.91;98607.53;4905883;29;20036;-92
2022/03/30 08:35:50;;;;;;;26.98;17.60;;;;;;;10.70;65.12;98615.03;4905946;29;20024;-94
2022/03/30 08:38:21;;;;;;;26.65;16.65;;;;;;;10.60;64.94;98604.56;4922422;29;20470;-92
2022/03/30 08:40:47;;;;;;;26.48;16.92;;;;;;;10.71;65.00;98611.38;4890010;29;20064;-93
2022/03/30 08:43:13;;;;;;;25.45;16.10;;;;;;;10.60;63.44;98603.72;4907151;29;20034;-93
2022/03/30 08:45:42;;;;;;;25.33;15.30;;;;;;;10.63;63.06;98606.03;4908485;29;20178;-92
2022/03/30 08:48:08;;;;;;;25.45;15.43;;;;;;;10.48;62.14;98615.78;4892849;29;20048;-92
2022/03/30 08:50:34;;;;;;;26.27;15.43;;;;;;;10.57;63.17;98604.91;4894021;29;20035;-92
2022/03/30 08:53:06;;;;;;;25.48;15.98;;;;;;;10.55;62.18;98600.72;4894701;29;20047;-92
2022/03/30 08:55:31;;;;;;;23.63;15.10;;;;;;;10.78;64.05;98598.13;4915289;29;20067;-94
2022/03/30 08:57:57;;;;;;;27.45;16.08;;;;;;;10.73;61.60;98602.16;4918033;29;20015;-93
2022/03/30 09:00:23;;;;;;;26.23;16.20;;;;;;;10.76;61.55;98605.50;4918494;29;20031;-95
2022/03/30 09:03:03;;;;;;;28.27;15.43;;;;;;;10.71;61.36;98598.84;4904676;29;20071;-94
2022/03/30 09:05:31;;;;;;;27.60;15.43;;;;;;;10.76;61.46;98606.34;4905802;29;20036;-93
2022/03/30 09:08:17;;;;;;;25.60;14.70;;;;;;;10.77;61.60;98608.00;4907110;29;20184;-95
2022/03/30 09:10:44;;;;;;;25.27;14.93;;;;;;;10.92;61.95;98606.28;4924533;29;20284;-95
2022/03/30 09:13:11;;;;;;;22.98;14.75;;;;;;;11.00;61.79;98600.91;4907469;29;20012;-94
2022/03/30 09:15:38;;;;;;;24.58;15.13;;;;;;;11.12;62.15;98593.31;4905348;29;20032;-93
2022/03/30 09:18:05;;;;;;;24.50;14.88;;;;;;;11.00;60.55;98595.56;4903397;29;20059;-94
2022/03/30 09:20:31;;;;;;;25.15;15.55;;;;;;;11.05;60.94;98603.06;4934920;29;20099;-93
2022/03/30 09:23:00;;;;;;;24.13;15.02;;;;;;;10.99;60.52;98604.59;4892810;29;20032;-92
2022/03/30 09:25:27;;;;;;;22.85;13.40;;;;;;;10.96;60.27;98607.63;4891386;29;20049;-94
2022/03/30 09:27:55;;;;;;;20.25;13.45;;;;;;;10.85;58.84;98607.97;4890772;29;20039;-92
2022/03/30 09:30:21;;;;;;;21.27;13.75;;;;;;;10.76;58.99;98606.34;4906001;29;20028;-92
2022/03/30 09:32:48;;;;;;;25.27;14.18;;;;;;;10.75;58.79;98602.00;4893091;29;20088;-93
2022/03/30 09:35:34;;;;;;;21.20;12.95;;;;;;;10.80;58.90;98610.31;4890530;29;20028;-92
2022/03/30 09:38:14;;;;;;;21.42;12.88;;;;;;;10.87;59.50;98611.31;4889248;29;20028;-92
2022/03/30 09:40:55;;;;;;;22.40;12.70;;;;;;;10.91;58.09;98604.63;4889145;29;20044;-94
2022/03/30 09:43:24;;;;;;;19.58;13.00;;;;;;;10.82;57.17;98600.28;4904855;29;20044;-92
2022/03/30 09:46:08;;;;;;;19.88;12.50;;;;;;;10.81;56.79;98603.13;4889125;29;20032;-93
2022/03/30 09:48:37;;;;;;;23.27;12.70;;;;;;;10.93;57.52;98599.94;4889296;29;20043;-92
2022/03/30 09:51:03;;;;;;;19.33;13.35;;;;;;;10.97;57.71;98595.06;4903901;29;20091;-92
2022/03/30 09:53:30;;;;;;;20.08;12.57;;;;;;;10.91;56.89;98601.94;4904481;29;20063;-91
2022/03/30 09:55:58;;;;;;;25.83;13.20;;;;;;;11.00;57.32;98600.06;4889129;29;20099;-93
2022/03/30 09:58:26;;;;;;;18.58;12.55;;;;;;;11.04;57.57;98599.56;4919929;29;20084;-93
2022/03/30 10:01:10;;;;;;;25.45;13.52;;;;;;;11.03;56.89;98594.38;4894935;29;20142;-94
2022/03/30 10:03:41;;;;;;;22.58;13.60;;;;;;;11.01;57.94;98601.75;4928368;29;20024;-93
2022/03/30 10:06:06;;;;;;;22.27;12.65;;;;;;;10.97;57.71;98600.44;4903680;29;20024;-92
2022/03/30 10:08:32;;;;;;;19.83;12.98;;;;;;;11.18;59.09;98595.28;4903724;29;20472;-92
2022/03/30 10:10:58;;;;;;;22.98;13.68;;;;;;;11.18;57.20;98591.78;4888219;29;20032;-92
2022/03/30 10:13:24;;;;;;;19.63;12.77;;;;;;;11.19;57.79;98585.44;4888677;29;20031;-92
2022/03/30 10:15:50;;;;;;;21.95;12.93;;;;;;;11.23;57.38;98584.06;4888508;29;20417;-93
2022/03/30 10:18:15;;;;;;;18.42;11.93;;;;;;;11.15;56.41;98586.78;4888386;29;20028;-92
2022/03/30 10:20:41;;;;;;;21.27;13.38;;;;;;;11.00;55.30;98582.19;4904259;29;20439;-92
2022/03/30 10:23:24;;;;;;;21.90;13.65;;;;;;;11.00;55.93;98578.69;4903065;29;20059;-92
2022/03/30 10:26:09;;;;;;;21.05;12.43;;;;;;;11.04;55.67;98578.16;4887338;29;20050;-92
2022/03/30 10:28:41;;;;;;;16.80;12.23;;;;;;;11.10;55.60;98565.91;4887188;29;20032;-93
2022/03/30 10:31:06;;;;;;;22.35;13.55;;;;;;;11.10;56.91;98567.75;4901855;29;20039;-93
2022/03/30 10:33:42;;;;;;;18.70;11.90;;;;;;;11.23;56.93;98557.31;4908152;29;20035;-93
2022/03/30 10:36:21;;;;;;;20.70;12.75;;;;;;;11.19;55.09;98551.47;4916672;29;20048;-93
2022/03/30 10:39:07;;;;;;;19.55;12.77;;;;;;;11.20;55.68;98552.31;4918476;29;20052;-94
2022/03/30 10:42:09;;;;;;;18.83;12.70;;;;;;;11.23;56.38;98544.75;4901298;29;20119;-92
2022/03/30 10:44:43;;;;;;;19.52;12.00;;;;;;;11.29;57.79;98552.06;4918984;29;20126;-92
2022/03/30 10:47:09;;;;;;;19.98;13.05;;;;;;;11.22;57.48;98543.09;4911966;29;20031;-92
2022/03/30 10:49:48;;;;;;;20.90;12.63;;;;;;;11.10;57.77;98543.69;4901010;29;20039;-92
2022/03/30 10:52:38;;;;;;;20.60;13.95;;;;;;;11.03;57.74;98541.72;4925903;29;20402;-92
2022/03/30 10:55:12;;;;;;;18.02;11.52;;;;;;;11.15;58.74;98541.31;4919657;29;20508;-93
2022/03/30 10:57:52;;;;;;;17.63;12.10;;;;;;;11.25;58.32;98531.19;4927944;29;20032;-92
2022/03/30 11:00:22;;;;;;;17.77;11.38;;;;;;;11.29;57.41;98537.84;4900710;29;20110;-93
2022/03/30 11:02:49;;;;;;;16.20;11.40;;;;;;;11.38;57.97;98536.00;4900502;29;20028;-93
2022/03/30 11:05:15;;;;;;;19.00;11.60;;;;;;;11.37;56.84;98532.47;4905772;29;20028;-92
2022/03/30 11:07:42;;;;;;;18.85;11.65;;;;;;;11.32;56.92;98522.28;4906018;29;20032;-94
2022/03/30 11:10:22;;;;;;;19.27;11.63;;;;;;;11.35;56.42;98521.09;4917606;29;20082;-91
2022/03/30 11:12:58;;;;;;;14.35;9.73;;;;;;;11.44;57.07;98524.56;4925580;28;20083;-91
2022/03/30 11:15:24;;;;;;;17.23;11.32;;;;;;;11.34;55.93;98519.41;4924501;28;20035;-91
2022/03/30 11:17:50;;;;;;;16.45;10.93;;;;;;;11.27;55.98;98503.25;4923229;29;20008;-91
2022/03/30 11:20:16;;;;;;;19.13;11.32;;;;;;;11.34;56.46;98506.03;4939164;28;20022;-91
2022/03/30 11:22:44;;;;;;;17.75;11.95;;;;;;;11.51;57.57;98496.91;4910609;28;20036;-93
2022/03/30 11:25:22;;;;;;;17.80;11.90;;;;;;;11.51;56.75;98504.94;4907770;29;20027;-91
2022/03/30 11:27:57;;;;;;;17.25;11.05;;;;;;;11.42;55.84;98505.19;4925131;29;20031;-93
2022/03/30 11:30:24;;;;;;;17.90;11.23;;;;;;;11.38;56.10;98504.69;4924106;29;20032;-92
2022/03/30 11:32:49;;;;;;;17.27;11.43;;;;;;;11.46;56.59;98495.78;4902618;29;20032;-92